sensor_id;sensor_type;location;lat;lon;timestamp;temperature;humidity
9448;DHT22;4762;48.128;11.376;2024-03-07T00:00:10;3.20;90.50
9448;DHT22;4762;48.128;11.376;2024-03-07T00:02:21;3.10;90.40
9448;DHT22;4762;48.128;11.376;2024-03-07T00:04:23;3.30;90.60
9448;DHT22;4762;48.128;11.376;2024-03-07T00:06:25;2.90;90.30
9448;DHT22;4762;48.128;11.376;2024-03-07T00:08:28;3.10;90.80
9448;DHT22;4762;48.128;11.376;2024-03-07T00:10:30;3.10;90.60
9448;DHT22;4762;48.128;11.376;2024-03-07T00:12:34;3.00;90.80
9448;DHT22;4762;48.128;11.376;2024-03-07T00:14:36;3.10;90.80
9448;DHT22;4762;48.128;11.376;2024-03-07T00:16:38;3.10;90.70
9448;DHT22;4762;48.128;11.376;2024-03-07T00:18:41;3.10;91.00
9448;DHT22;4762;48.128;11.376;2024-03-07T00:20:43;2.90;90.80
9448;DHT22;4762;48.128;11.376;2024-03-07T00:22:45;2.90;90.70
9448;DHT22;4762;48.128;11.376;2024-03-07T00:24:47;3.20;90.80
9448;DHT22;4762;48.128;11.376;2024-03-07T00:26:50;3.10;91.10
9448;DHT22;4762;48.128;11.376;2024-03-07T00:28:52;3.00;91.10
9448;DHT22;4762;48.128;11.376;2024-03-07T00:30:54;3.00;91.20
9448;DHT22;4762;48.128;11.376;2024-03-07T00:32:57;2.90;91.10
9448;DHT22;4762;48.128;11.376;2024-03-07T00:34:59;2.90;91.20
9448;DHT22;4762;48.128;11.376;2024-03-07T00:37:01;2.80;91.40
9448;DHT22;4762;48.128;11.376;2024-03-07T00:39:03;3.00;91.40
9448;DHT22;4762;48.128;11.376;2024-03-07T00:41:05;3.00;91.20
9448;DHT22;4762;48.128;11.376;2024-03-07T00:43:07;3.00;91.10
9448;DHT22;4762;48.128;11.376;2024-03-07T00:45:10;3.10;91.10
9448;DHT22;4762;48.128;11.376;2024-03-07T00:47:13;3.30;91.20
9448;DHT22;4762;48.128;11.376;2024-03-07T00:49:15;3.20;91.10
9448;DHT22;4762;48.128;11.376;2024-03-07T00:51:17;3.00;91.30
9448;DHT22;4762;48.128;11.376;2024-03-07T00:53:19;2.90;91.30
9448;DHT22;4762;48.128;11.376;2024-03-07T00:55:22;3.20;91.30
9448;DHT22;4762;48.128;11.376;2024-03-07T00:57:24;3.00;91.30
9448;DHT22;4762;48.128;11.376;2024-03-07T00:59:26;2.90;91.40
9448;DHT22;4762;48.128;11.376;2024-03-07T01:01:28;3.00;91.40
9448;DHT22;4762;48.128;11.376;2024-03-07T01:03:31;3.20;91.50
9448;DHT22;4762;48.128;11.376;2024-03-07T01:05:33;3.30;91.40
9448;DHT22;4762;48.128;11.376;2024-03-07T01:07:35;3.20;91.10
9448;DHT22;4762;48.128;11.376;2024-03-07T01:09:37;3.10;91.10
9448;DHT22;4762;48.128;11.376;2024-03-07T01:11:42;3.20;91.10
9448;DHT22;4762;48.128;11.376;2024-03-07T01:13:43;3.30;91.20
9448;DHT22;4762;48.128;11.376;2024-03-07T01:15:45;3.20;91.20
9448;DHT22;4762;48.128;11.376;2024-03-07T01:17:47;3.10;91.10
9448;DHT22;4762;48.128;11.376;2024-03-07T01:19:50;3.00;91.20
9448;DHT22;4762;48.128;11.376;2024-03-07T01:21:53;2.90;91.10
9448;DHT22;4762;48.128;11.376;2024-03-07T01:23:56;2.90;91.30
9448;DHT22;4762;48.128;11.376;2024-03-07T01:25:58;3.00;91.30
9448;DHT22;4762;48.128;11.376;2024-03-07T01:28:00;3.10;91.40
9448;DHT22;4762;48.128;11.376;2024-03-07T01:30:03;3.10;91.40
9448;DHT22;4762;48.128;11.376;2024-03-07T01:32:06;3.00;91.50
9448;DHT22;4762;48.128;11.376;2024-03-07T01:34:08;2.80;91.50
9448;DHT22;4762;48.128;11.376;2024-03-07T01:36:12;3.00;91.50
9448;DHT22;4762;48.128;11.376;2024-03-07T01:38:14;3.00;91.50
9448;DHT22;4762;48.128;11.376;2024-03-07T01:40:16;3.20;91.40
9448;DHT22;4762;48.128;11.376;2024-03-07T01:42:19;3.10;91.30
9448;DHT22;4762;48.128;11.376;2024-03-07T01:44:21;3.10;91.30
9448;DHT22;4762;48.128;11.376;2024-03-07T01:46:23;3.20;91.10
9448;DHT22;4762;48.128;11.376;2024-03-07T01:48:27;3.20;91.10
9448;DHT22;4762;48.128;11.376;2024-03-07T01:50:28;3.40;91.20
9448;DHT22;4762;48.128;11.376;2024-03-07T01:52:31;3.10;91.00
9448;DHT22;4762;48.128;11.376;2024-03-07T01:54:34;3.40;91.00
9448;DHT22;4762;48.128;11.376;2024-03-07T01:56:36;3.30;91.10
9448;DHT22;4762;48.128;11.376;2024-03-07T01:58:38;3.20;91.00
9448;DHT22;4762;48.128;11.376;2024-03-07T02:00:41;3.30;91.00
9448;DHT22;4762;48.128;11.376;2024-03-07T02:02:43;3.40;91.00
9448;DHT22;4762;48.128;11.376;2024-03-07T02:04:45;3.40;90.90
9448;DHT22;4762;48.128;11.376;2024-03-07T02:06:47;3.50;90.90
9448;DHT22;4762;48.128;11.376;2024-03-07T02:08:49;3.40;90.80
9448;DHT22;4762;48.128;11.376;2024-03-07T02:10:52;3.30;90.70
9448;DHT22;4762;48.128;11.376;2024-03-07T02:12:55;3.50;91.00
9448;DHT22;4762;48.128;11.376;2024-03-07T02:14:57;3.40;91.00
9448;DHT22;4762;48.128;11.376;2024-03-07T02:17:00;3.40;91.00
9448;DHT22;4762;48.128;11.376;2024-03-07T02:19:02;3.40;90.80
9448;DHT22;4762;48.128;11.376;2024-03-07T02:21:07;3.20;90.90
9448;DHT22;4762;48.128;11.376;2024-03-07T02:23:09;3.30;91.00
9448;DHT22;4762;48.128;11.376;2024-03-07T02:25:11;3.50;91.00
9448;DHT22;4762;48.128;11.376;2024-03-07T02:27:14;3.20;91.00
9448;DHT22;4762;48.128;11.376;2024-03-07T02:29:16;3.30;91.00
9448;DHT22;4762;48.128;11.376;2024-03-07T02:31:19;3.50;91.10
9448;DHT22;4762;48.128;11.376;2024-03-07T02:33:21;3.20;91.10
9448;DHT22;4762;48.128;11.376;2024-03-07T02:35:23;3.40;91.20
9448;DHT22;4762;48.128;11.376;2024-03-07T02:37:25;3.40;91.10
9448;DHT22;4762;48.128;11.376;2024-03-07T02:39:27;3.50;91.00
9448;DHT22;4762;48.128;11.376;2024-03-07T02:41:30;3.30;91.00
9448;DHT22;4762;48.128;11.376;2024-03-07T02:43:32;3.40;90.80
9448;DHT22;4762;48.128;11.376;2024-03-07T02:45:35;3.40;91.00
9448;DHT22;4762;48.128;11.376;2024-03-07T02:47:37;3.30;91.00
9448;DHT22;4762;48.128;11.376;2024-03-07T02:49:39;3.30;90.90
9448;DHT22;4762;48.128;11.376;2024-03-07T02:51:42;3.30;90.90
9448;DHT22;4762;48.128;11.376;2024-03-07T02:53:44;3.40;91.00
9448;DHT22;4762;48.128;11.376;2024-03-07T02:55:46;3.50;90.90
9448;DHT22;4762;48.128;11.376;2024-03-07T02:57:49;3.50;90.90
9448;DHT22;4762;48.128;11.376;2024-03-07T02:59:51;3.50;90.90
9448;DHT22;4762;48.128;11.376;2024-03-07T03:02:13;3.50;90.90
9448;DHT22;4762;48.128;11.376;2024-03-07T03:07:17;3.50;91.00
9448;DHT22;4762;48.128;11.376;2024-03-07T03:09:47;3.50;90.90
9448;DHT22;4762;48.128;11.376;2024-03-07T03:12:13;3.40;91.00
9448;DHT22;4762;48.128;11.376;2024-03-07T03:15:10;3.40;91.00
9448;DHT22;4762;48.128;11.376;2024-03-07T03:28:02;3.50;90.80
9448;DHT22;4762;48.128;11.376;2024-03-07T03:35:30;3.40;91.10
9448;DHT22;4762;48.128;11.376;2024-03-07T03:40:11;3.40;91.10
9448;DHT22;4762;48.128;11.376;2024-03-07T03:45:08;3.40;91.10
9448;DHT22;4762;48.128;11.376;2024-03-07T03:52:27;3.20;91.20
9448;DHT22;4762;48.128;11.376;2024-03-07T03:55:10;3.40;90.80
9448;DHT22;4762;48.128;11.376;2024-03-07T04:07:37;3.00;91.30
9448;DHT22;4762;48.128;11.376;2024-03-07T04:09:58;3.00;91.40
9448;DHT22;4762;48.128;11.376;2024-03-07T04:12:04;3.00;91.30
9448;DHT22;4762;48.128;11.376;2024-03-07T04:14:08;2.80;91.30
9448;DHT22;4762;48.128;11.376;2024-03-07T04:16:13;2.80;91.30
9448;DHT22;4762;48.128;11.376;2024-03-07T04:18:17;2.90;91.50
9448;DHT22;4762;48.128;11.376;2024-03-07T04:20:21;2.90;91.20
9448;DHT22;4762;48.128;11.376;2024-03-07T04:22:25;2.90;91.20
9448;DHT22;4762;48.128;11.376;2024-03-07T04:24:27;2.70;91.10
9448;DHT22;4762;48.128;11.376;2024-03-07T04:26:31;2.70;91.10
9448;DHT22;4762;48.128;11.376;2024-03-07T04:28:34;2.50;90.90
9448;DHT22;4762;48.128;11.376;2024-03-07T04:30:37;2.70;91.00
9448;DHT22;4762;48.128;11.376;2024-03-07T04:32:40;2.50;91.10
9448;DHT22;4762;48.128;11.376;2024-03-07T04:34:44;2.30;91.20
9448;DHT22;4762;48.128;11.376;2024-03-07T04:36:47;2.40;91.30
9448;DHT22;4762;48.128;11.376;2024-03-07T04:38:50;2.50;91.20
9448;DHT22;4762;48.128;11.376;2024-03-07T04:40:53;2.30;91.40
9448;DHT22;4762;48.128;11.376;2024-03-07T04:42:56;2.50;91.30
9448;DHT22;4762;48.128;11.376;2024-03-07T04:45:00;2.40;91.00
9448;DHT22;4762;48.128;11.376;2024-03-07T04:47:03;2.50;91.30
9448;DHT22;4762;48.128;11.376;2024-03-07T04:49:05;2.50;91.30
9448;DHT22;4762;48.128;11.376;2024-03-07T04:51:07;2.40;91.20
9448;DHT22;4762;48.128;11.376;2024-03-07T04:53:10;2.40;91.10
9448;DHT22;4762;48.128;11.376;2024-03-07T04:55:13;2.50;90.60
9448;DHT22;4762;48.128;11.376;2024-03-07T04:57:16;2.40;90.60
9448;DHT22;4762;48.128;11.376;2024-03-07T04:59:21;2.50;90.50
9448;DHT22;4762;48.128;11.376;2024-03-07T05:01:24;2.40;89.90
9448;DHT22;4762;48.128;11.376;2024-03-07T05:03:27;2.50;89.60
9448;DHT22;4762;48.128;11.376;2024-03-07T05:05:30;2.40;89.70
9448;DHT22;4762;48.128;11.376;2024-03-07T05:07:33;2.40;89.10
9448;DHT22;4762;48.128;11.376;2024-03-07T05:09:35;2.30;88.60
9448;DHT22;4762;48.128;11.376;2024-03-07T05:11:37;2.50;88.70
9448;DHT22;4762;48.128;11.376;2024-03-07T05:13:40;2.40;89.00
9448;DHT22;4762;48.128;11.376;2024-03-07T05:15:44;2.30;88.40
9448;DHT22;4762;48.128;11.376;2024-03-07T05:17:47;2.30;88.00
9448;DHT22;4762;48.128;11.376;2024-03-07T05:19:51;2.40;88.30
9448;DHT22;4762;48.128;11.376;2024-03-07T05:21:56;2.30;88.50
9448;DHT22;4762;48.128;11.376;2024-03-07T05:23:59;2.30;88.50
9448;DHT22;4762;48.128;11.376;2024-03-07T05:26:03;2.40;88.90
9448;DHT22;4762;48.128;11.376;2024-03-07T05:28:06;2.40;88.90
9448;DHT22;4762;48.128;11.376;2024-03-07T05:30:10;2.40;89.00
9448;DHT22;4762;48.128;11.376;2024-03-07T05:32:22;2.30;89.30
9448;DHT22;4762;48.128;11.376;2024-03-07T05:34:24;2.30;89.40
9448;DHT22;4762;48.128;11.376;2024-03-07T05:36:27;2.40;89.50
9448;DHT22;4762;48.128;11.376;2024-03-07T05:38:29;2.40;89.40
9448;DHT22;4762;48.128;11.376;2024-03-07T05:40:31;2.30;89.60
9448;DHT22;4762;48.128;11.376;2024-03-07T05:42:33;2.20;89.40
9448;DHT22;4762;48.128;11.376;2024-03-07T05:44:36;2.20;89.10
9448;DHT22;4762;48.128;11.376;2024-03-07T05:46:38;2.40;89.50
9448;DHT22;4762;48.128;11.376;2024-03-07T05:48:43;2.40;89.50
9448;DHT22;4762;48.128;11.376;2024-03-07T05:50:47;2.40;89.40
9448;DHT22;4762;48.128;11.376;2024-03-07T05:52:49;2.30;89.40
9448;DHT22;4762;48.128;11.376;2024-03-07T05:54:52;2.20;89.80
9448;DHT22;4762;48.128;11.376;2024-03-07T05:56:55;2.20;89.30
9448;DHT22;4762;48.128;11.376;2024-03-07T05:58:57;2.30;89.50
9448;DHT22;4762;48.128;11.376;2024-03-07T06:01:01;2.20;89.70
9448;DHT22;4762;48.128;11.376;2024-03-07T06:03:04;2.20;89.60
9448;DHT22;4762;48.128;11.376;2024-03-07T06:05:06;2.40;89.50
9448;DHT22;4762;48.128;11.376;2024-03-07T06:07:10;2.20;89.50
9448;DHT22;4762;48.128;11.376;2024-03-07T06:09:13;2.20;89.40
9448;DHT22;4762;48.128;11.376;2024-03-07T06:11:19;2.20;89.30
9448;DHT22;4762;48.128;11.376;2024-03-07T06:13:21;2.20;89.10
9448;DHT22;4762;48.128;11.376;2024-03-07T06:15:24;2.30;88.70
9448;DHT22;4762;48.128;11.376;2024-03-07T06:17:26;2.10;88.40
9448;DHT22;4762;48.128;11.376;2024-03-07T06:19:28;2.20;88.80
9448;DHT22;4762;48.128;11.376;2024-03-07T06:21:31;2.00;87.30
9448;DHT22;4762;48.128;11.376;2024-03-07T06:23:33;2.00;88.30
9448;DHT22;4762;48.128;11.376;2024-03-07T06:25:35;2.10;88.50
9448;DHT22;4762;48.128;11.376;2024-03-07T06:27:39;2.20;88.80
9448;DHT22;4762;48.128;11.376;2024-03-07T06:29:42;2.40;88.90
9448;DHT22;4762;48.128;11.376;2024-03-07T06:31:45;2.50;88.80
9448;DHT22;4762;48.128;11.376;2024-03-07T06:33:48;2.30;88.10
9448;DHT22;4762;48.128;11.376;2024-03-07T06:35:51;2.40;88.40
9448;DHT22;4762;48.128;11.376;2024-03-07T06:37:54;2.00;88.60
9448;DHT22;4762;48.128;11.376;2024-03-07T06:39:57;2.30;89.00
9448;DHT22;4762;48.128;11.376;2024-03-07T06:42:00;2.40;88.60
9448;DHT22;4762;48.128;11.376;2024-03-07T06:44:02;2.20;88.60
9448;DHT22;4762;48.128;11.376;2024-03-07T06:46:05;2.40;88.90
9448;DHT22;4762;48.128;11.376;2024-03-07T06:48:08;2.30;89.10
9448;DHT22;4762;48.128;11.376;2024-03-07T06:50:11;2.40;88.90
9448;DHT22;4762;48.128;11.376;2024-03-07T06:52:14;2.40;89.10
9448;DHT22;4762;48.128;11.376;2024-03-07T06:54:18;2.40;89.10
9448;DHT22;4762;48.128;11.376;2024-03-07T06:56:21;2.30;88.90
9448;DHT22;4762;48.128;11.376;2024-03-07T06:58:23;2.30;88.90
9448;DHT22;4762;48.128;11.376;2024-03-07T07:00:26;2.30;88.80
9448;DHT22;4762;48.128;11.376;2024-03-07T07:02:29;2.50;88.70
9448;DHT22;4762;48.128;11.376;2024-03-07T07:04:32;2.40;88.70
9448;DHT22;4762;48.128;11.376;2024-03-07T07:06:35;2.50;88.90
9448;DHT22;4762;48.128;11.376;2024-03-07T07:08:37;2.70;89.00
9448;DHT22;4762;48.128;11.376;2024-03-07T07:10:40;2.60;88.20
9448;DHT22;4762;48.128;11.376;2024-03-07T07:12:44;2.50;88.20
9448;DHT22;4762;48.128;11.376;2024-03-07T07:14:46;2.40;88.50
9448;DHT22;4762;48.128;11.376;2024-03-07T07:16:49;2.50;88.50
9448;DHT22;4762;48.128;11.376;2024-03-07T07:18:52;2.60;88.40
9448;DHT22;4762;48.128;11.376;2024-03-07T07:20:55;2.80;87.90
9448;DHT22;4762;48.128;11.376;2024-03-07T07:22:58;2.50;88.10
9448;DHT22;4762;48.128;11.376;2024-03-07T07:25:00;2.60;88.10
9448;DHT22;4762;48.128;11.376;2024-03-07T07:27:02;2.70;87.20
9448;DHT22;4762;48.128;11.376;2024-03-07T07:29:06;2.70;87.70
9448;DHT22;4762;48.128;11.376;2024-03-07T07:31:10;2.80;87.70
9448;DHT22;4762;48.128;11.376;2024-03-07T07:33:12;2.60;86.00
9448;DHT22;4762;48.128;11.376;2024-03-07T07:35:16;2.80;87.00
9448;DHT22;4762;48.128;11.376;2024-03-07T07:37:18;2.60;87.40
9448;DHT22;4762;48.128;11.376;2024-03-07T07:39:21;2.30;87.20
9448;DHT22;4762;48.128;11.376;2024-03-07T07:41:24;2.60;87.70
9448;DHT22;4762;48.128;11.376;2024-03-07T07:43:27;2.70;87.80
9448;DHT22;4762;48.128;11.376;2024-03-07T07:45:29;2.90;87.00
9448;DHT22;4762;48.128;11.376;2024-03-07T07:47:32;2.70;86.30
9448;DHT22;4762;48.128;11.376;2024-03-07T07:49:34;3.10;85.90
9448;DHT22;4762;48.128;11.376;2024-03-07T07:51:36;2.90;85.50
9448;DHT22;4762;48.128;11.376;2024-03-07T07:53:39;3.00;86.00
9448;DHT22;4762;48.128;11.376;2024-03-07T07:55:42;3.20;85.60
9448;DHT22;4762;48.128;11.376;2024-03-07T07:57:52;3.00;84.90
9448;DHT22;4762;48.128;11.376;2024-03-07T07:59:54;3.30;86.10
9448;DHT22;4762;48.128;11.376;2024-03-07T08:09:41;2.60;85.40
9448;DHT22;4762;48.128;11.376;2024-03-07T08:11:44;2.60;85.30
9448;DHT22;4762;48.128;11.376;2024-03-07T08:13:46;3.00;86.50
9448;DHT22;4762;48.128;11.376;2024-03-07T08:15:48;2.90;86.20
9448;DHT22;4762;48.128;11.376;2024-03-07T08:17:51;3.00;86.30
9448;DHT22;4762;48.128;11.376;2024-03-07T08:19:53;2.60;85.90
9448;DHT22;4762;48.128;11.376;2024-03-07T08:21:56;2.70;85.70
9448;DHT22;4762;48.128;11.376;2024-03-07T08:23:59;2.70;85.00
9448;DHT22;4762;48.128;11.376;2024-03-07T08:26:01;2.80;86.10
9448;DHT22;4762;48.128;11.376;2024-03-07T08:28:04;2.80;86.50
9448;DHT22;4762;48.128;11.376;2024-03-07T08:30:08;3.00;86.70
9448;DHT22;4762;48.128;11.376;2024-03-07T08:32:11;3.20;86.70
9448;DHT22;4762;48.128;11.376;2024-03-07T08:34:13;3.30;85.70
9448;DHT22;4762;48.128;11.376;2024-03-07T08:36:15;3.40;84.80
9448;DHT22;4762;48.128;11.376;2024-03-07T08:38:19;3.50;84.80
9448;DHT22;4762;48.128;11.376;2024-03-07T08:40:22;3.40;85.00
9448;DHT22;4762;48.128;11.376;2024-03-07T08:42:24;3.20;85.60
9448;DHT22;4762;48.128;11.376;2024-03-07T08:44:26;3.50;85.20
9448;DHT22;4762;48.128;11.376;2024-03-07T08:46:28;3.20;84.80
9448;DHT22;4762;48.128;11.376;2024-03-07T08:48:33;3.40;84.80
9448;DHT22;4762;48.128;11.376;2024-03-07T08:50:35;3.40;85.00
9448;DHT22;4762;48.128;11.376;2024-03-07T08:52:37;3.30;84.50
9448;DHT22;4762;48.128;11.376;2024-03-07T08:54:40;3.10;84.20
9448;DHT22;4762;48.128;11.376;2024-03-07T08:56:43;3.10;84.90
9448;DHT22;4762;48.128;11.376;2024-03-07T08:58:46;3.40;84.50
9448;DHT22;4762;48.128;11.376;2024-03-07T09:00:49;3.20;85.60
9448;DHT22;4762;48.128;11.376;2024-03-07T09:02:51;3.40;84.00
9448;DHT22;4762;48.128;11.376;2024-03-07T09:04:54;3.50;84.20
9448;DHT22;4762;48.128;11.376;2024-03-07T09:06:56;3.80;84.10
9448;DHT22;4762;48.128;11.376;2024-03-07T09:08:59;3.70;83.60
9448;DHT22;4762;48.128;11.376;2024-03-07T09:11:02;3.80;83.40
9448;DHT22;4762;48.128;11.376;2024-03-07T09:13:04;3.90;83.70
9448;DHT22;4762;48.128;11.376;2024-03-07T09:15:08;4.00;84.40
9448;DHT22;4762;48.128;11.376;2024-03-07T09:17:13;4.20;82.20
9448;DHT22;4762;48.128;11.376;2024-03-07T09:19:15;4.30;83.00
9448;DHT22;4762;48.128;11.376;2024-03-07T09:21:18;4.20;82.00
9448;DHT22;4762;48.128;11.376;2024-03-07T09:23:21;4.20;82.60
9448;DHT22;4762;48.128;11.376;2024-03-07T09:25:24;4.00;82.70
9448;DHT22;4762;48.128;11.376;2024-03-07T09:27:27;4.40;82.20
9448;DHT22;4762;48.128;11.376;2024-03-07T09:29:30;4.50;81.40
9448;DHT22;4762;48.128;11.376;2024-03-07T09:31:32;4.00;82.20
9448;DHT22;4762;48.128;11.376;2024-03-07T09:33:34;4.10;82.30
9448;DHT22;4762;48.128;11.376;2024-03-07T09:35:36;4.40;82.30
9448;DHT22;4762;48.128;11.376;2024-03-07T09:37:40;4.60;81.20
9448;DHT22;4762;48.128;11.376;2024-03-07T09:39:43;4.30;79.80
9448;DHT22;4762;48.128;11.376;2024-03-07T09:41:46;4.10;80.60
9448;DHT22;4762;48.128;11.376;2024-03-07T09:43:48;3.90;80.70
9448;DHT22;4762;48.128;11.376;2024-03-07T09:45:52;3.70;82.20
9448;DHT22;4762;48.128;11.376;2024-03-07T09:47:54;3.80;82.20
9448;DHT22;4762;48.128;11.376;2024-03-07T09:49:56;4.20;83.20
9448;DHT22;4762;48.128;11.376;2024-03-07T09:51:58;4.50;81.60
9448;DHT22;4762;48.128;11.376;2024-03-07T09:54:01;4.70;79.60
9448;DHT22;4762;48.128;11.376;2024-03-07T09:56:05;4.80;80.30
9448;DHT22;4762;48.128;11.376;2024-03-07T09:58:06;4.90;79.20
9448;DHT22;4762;48.128;11.376;2024-03-07T10:00:09;4.80;80.60
9448;DHT22;4762;48.128;11.376;2024-03-07T10:02:12;4.70;81.50
9448;DHT22;4762;48.128;11.376;2024-03-07T10:04:18;4.60;81.00
9448;DHT22;4762;48.128;11.376;2024-03-07T10:06:21;4.90;79.30
9448;DHT22;4762;48.128;11.376;2024-03-07T10:08:25;5.00;79.80
9448;DHT22;4762;48.128;11.376;2024-03-07T10:10:28;4.90;80.00
9448;DHT22;4762;48.128;11.376;2024-03-07T10:12:30;5.00;81.00
9448;DHT22;4762;48.128;11.376;2024-03-07T10:14:33;5.00;79.00
9448;DHT22;4762;48.128;11.376;2024-03-07T10:16:38;5.10;79.10
9448;DHT22;4762;48.128;11.376;2024-03-07T10:18:42;5.40;78.80
9448;DHT22;4762;48.128;11.376;2024-03-07T10:20:45;5.70;79.70
9448;DHT22;4762;48.128;11.376;2024-03-07T10:22:48;5.90;78.20
9448;DHT22;4762;48.128;11.376;2024-03-07T10:24:56;5.90;77.40
9448;DHT22;4762;48.128;11.376;2024-03-07T10:27:00;6.00;75.90
9448;DHT22;4762;48.128;11.376;2024-03-07T10:29:01;5.90;76.80
9448;DHT22;4762;48.128;11.376;2024-03-07T10:31:04;5.90;75.60
9448;DHT22;4762;48.128;11.376;2024-03-07T10:33:11;6.10;76.80
9448;DHT22;4762;48.128;11.376;2024-03-07T10:35:14;6.30;75.40
9448;DHT22;4762;48.128;11.376;2024-03-07T10:37:16;6.20;77.00
9448;DHT22;4762;48.128;11.376;2024-03-07T10:39:20;6.10;78.20
9448;DHT22;4762;48.128;11.376;2024-03-07T10:41:23;6.10;76.50
9448;DHT22;4762;48.128;11.376;2024-03-07T10:43:27;6.30;75.90
9448;DHT22;4762;48.128;11.376;2024-03-07T10:45:30;6.10;75.90
9448;DHT22;4762;48.128;11.376;2024-03-07T10:47:32;6.40;75.50
9448;DHT22;4762;48.128;11.376;2024-03-07T10:49:37;6.60;77.30
9448;DHT22;4762;48.128;11.376;2024-03-07T10:51:40;6.70;76.10
9448;DHT22;4762;48.128;11.376;2024-03-07T10:54:05;6.90;73.70
9448;DHT22;4762;48.128;11.376;2024-03-07T10:56:29;6.00;75.80
9448;DHT22;4762;48.128;11.376;2024-03-07T10:58:32;6.10;76.80
9448;DHT22;4762;48.128;11.376;2024-03-07T11:00:30;6.30;71.80
9448;DHT22;4762;48.128;11.376;2024-03-07T11:02:34;6.90;71.90
9448;DHT22;4762;48.128;11.376;2024-03-07T11:04:38;7.20;71.40
9448;DHT22;4762;48.128;11.376;2024-03-07T11:06:40;7.40;70.30
9448;DHT22;4762;48.128;11.376;2024-03-07T11:08:45;7.30;69.80
9448;DHT22;4762;48.128;11.376;2024-03-07T11:10:47;7.60;70.00
9448;DHT22;4762;48.128;11.376;2024-03-07T11:12:52;7.80;68.70
9448;DHT22;4762;48.128;11.376;2024-03-07T11:14:55;7.30;69.90
9448;DHT22;4762;48.128;11.376;2024-03-07T11:16:59;7.60;69.20
9448;DHT22;4762;48.128;11.376;2024-03-07T11:19:25;7.70;67.30
9448;DHT22;4762;48.128;11.376;2024-03-07T11:26:06;7.60;66.90
9448;DHT22;4762;48.128;11.376;2024-03-07T11:28:13;7.40;66.40
9448;DHT22;4762;48.128;11.376;2024-03-07T11:30:17;7.10;67.10
9448;DHT22;4762;48.128;11.376;2024-03-07T11:32:19;6.90;70.10
9448;DHT22;4762;48.128;11.376;2024-03-07T11:34:23;6.80;68.40
9448;DHT22;4762;48.128;11.376;2024-03-07T11:38:47;6.50;69.60
9448;DHT22;4762;48.128;11.376;2024-03-07T11:40:52;6.80;69.90
9448;DHT22;4762;48.128;11.376;2024-03-07T11:42:57;7.10;67.80
9448;DHT22;4762;48.128;11.376;2024-03-07T11:45:05;7.70;67.90
9448;DHT22;4762;48.128;11.376;2024-03-07T11:47:08;7.60;66.30
9448;DHT22;4762;48.128;11.376;2024-03-07T11:49:13;7.90;67.20
9448;DHT22;4762;48.128;11.376;2024-03-07T11:51:17;7.80;64.80
9448;DHT22;4762;48.128;11.376;2024-03-07T11:53:19;7.60;63.70
9448;DHT22;4762;48.128;11.376;2024-03-07T11:55:22;7.50;65.70
9448;DHT22;4762;48.128;11.376;2024-03-07T11:57:24;7.90;65.70
9448;DHT22;4762;48.128;11.376;2024-03-07T11:59:42;8.10;65.00
9448;DHT22;4762;48.128;11.376;2024-03-07T12:01:54;8.20;66.40
9448;DHT22;4762;48.128;11.376;2024-03-07T12:03:56;8.30;63.50
9448;DHT22;4762;48.128;11.376;2024-03-07T12:06:00;8.30;64.10
9448;DHT22;4762;48.128;11.376;2024-03-07T12:08:04;8.10;64.60
9448;DHT22;4762;48.128;11.376;2024-03-07T12:10:07;8.30;63.40
9448;DHT22;4762;48.128;11.376;2024-03-07T12:12:09;8.10;65.20
9448;DHT22;4762;48.128;11.376;2024-03-07T12:14:11;8.60;64.80
9448;DHT22;4762;48.128;11.376;2024-03-07T12:16:16;8.70;63.70
9448;DHT22;4762;48.128;11.376;2024-03-07T12:18:18;8.30;61.90
9448;DHT22;4762;48.128;11.376;2024-03-07T12:20:22;8.30;66.10
9448;DHT22;4762;48.128;11.376;2024-03-07T12:22:27;8.50;62.40
9448;DHT22;4762;48.128;11.376;2024-03-07T12:24:30;8.90;58.50
9448;DHT22;4762;48.128;11.376;2024-03-07T12:26:33;8.80;58.80
9448;DHT22;4762;48.128;11.376;2024-03-07T12:28:35;9.00;61.90
9448;DHT22;4762;48.128;11.376;2024-03-07T12:30:48;8.80;59.70
9448;DHT22;4762;48.128;11.376;2024-03-07T12:32:50;8.80;61.70
9448;DHT22;4762;48.128;11.376;2024-03-07T12:34:54;8.90;59.80
9448;DHT22;4762;48.128;11.376;2024-03-07T12:36:57;8.50;58.90
9448;DHT22;4762;48.128;11.376;2024-03-07T12:39:01;8.60;60.60
9448;DHT22;4762;48.128;11.376;2024-03-07T12:41:05;8.70;59.90
9448;DHT22;4762;48.128;11.376;2024-03-07T12:43:14;8.50;61.90
9448;DHT22;4762;48.128;11.376;2024-03-07T12:45:19;8.40;62.70
9448;DHT22;4762;48.128;11.376;2024-03-07T12:47:25;8.60;60.80
9448;DHT22;4762;48.128;11.376;2024-03-07T12:49:28;8.60;61.70
9448;DHT22;4762;48.128;11.376;2024-03-07T12:51:32;8.40;60.70
9448;DHT22;4762;48.128;11.376;2024-03-07T12:53:37;8.30;62.90
9448;DHT22;4762;48.128;11.376;2024-03-07T12:55:39;8.40;60.90
9448;DHT22;4762;48.128;11.376;2024-03-07T12:57:45;8.40;64.60
9448;DHT22;4762;48.128;11.376;2024-03-07T12:59:48;8.50;61.10
9448;DHT22;4762;48.128;11.376;2024-03-07T13:01:51;8.50;62.70
9448;DHT22;4762;48.128;11.376;2024-03-07T13:03:53;8.60;62.90
9448;DHT22;4762;48.128;11.376;2024-03-07T13:05:56;8.00;62.60
9448;DHT22;4762;48.128;11.376;2024-03-07T13:07:58;7.80;64.60
9448;DHT22;4762;48.128;11.376;2024-03-07T13:10:00;7.70;65.80
9448;DHT22;4762;48.128;11.376;2024-03-07T13:12:03;7.70;64.10
9448;DHT22;4762;48.128;11.376;2024-03-07T13:14:06;7.90;63.60
9448;DHT22;4762;48.128;11.376;2024-03-07T13:16:09;8.00;64.10
9448;DHT22;4762;48.128;11.376;2024-03-07T13:18:12;7.50;62.50
9448;DHT22;4762;48.128;11.376;2024-03-07T13:20:14;7.80;64.60
9448;DHT22;4762;48.128;11.376;2024-03-07T13:22:17;7.90;64.80
9448;DHT22;4762;48.128;11.376;2024-03-07T13:24:21;8.10;63.20
9448;DHT22;4762;48.128;11.376;2024-03-07T13:26:24;8.00;62.50
9448;DHT22;4762;48.128;11.376;2024-03-07T13:28:26;8.10;63.00
9448;DHT22;4762;48.128;11.376;2024-03-07T13:30:29;8.20;61.40
9448;DHT22;4762;48.128;11.376;2024-03-07T13:32:31;8.10;63.80
9448;DHT22;4762;48.128;11.376;2024-03-07T13:34:34;8.10;64.60
9448;DHT22;4762;48.128;11.376;2024-03-07T13:36:36;8.20;59.60
9448;DHT22;4762;48.128;11.376;2024-03-07T13:38:38;8.00;60.50
9448;DHT22;4762;48.128;11.376;2024-03-07T13:40:41;7.90;60.80
9448;DHT22;4762;48.128;11.376;2024-03-07T13:42:45;7.90;61.20
9448;DHT22;4762;48.128;11.376;2024-03-07T13:44:49;8.00;60.40
9448;DHT22;4762;48.128;11.376;2024-03-07T13:46:51;7.70;61.70
9448;DHT22;4762;48.128;11.376;2024-03-07T13:48:53;7.80;62.40
9448;DHT22;4762;48.128;11.376;2024-03-07T13:50:56;7.60;62.30
9448;DHT22;4762;48.128;11.376;2024-03-07T13:52:59;7.50;62.10
9448;DHT22;4762;48.128;11.376;2024-03-07T13:55:06;7.40;63.40
9448;DHT22;4762;48.128;11.376;2024-03-07T14:01:57;7.40;66.10
9448;DHT22;4762;48.128;11.376;2024-03-07T14:06:26;6.90;66.10
9448;DHT22;4762;48.128;11.376;2024-03-07T14:15:28;7.30;64.20
9448;DHT22;4762;48.128;11.376;2024-03-07T14:20:26;6.90;63.70
9448;DHT22;4762;48.128;11.376;2024-03-07T14:22:39;7.20;63.10
9448;DHT22;4762;48.128;11.376;2024-03-07T14:24:46;7.30;62.70
9448;DHT22;4762;48.128;11.376;2024-03-07T14:27:15;7.30;64.00
9448;DHT22;4762;48.128;11.376;2024-03-07T14:29:20;7.40;65.10
9448;DHT22;4762;48.128;11.376;2024-03-07T14:31:19;7.30;62.80
9448;DHT22;4762;48.128;11.376;2024-03-07T14:33:27;7.30;65.10
9448;DHT22;4762;48.128;11.376;2024-03-07T14:40:13;7.60;63.60
9448;DHT22;4762;48.128;11.376;2024-03-07T14:42:16;7.80;64.50
9448;DHT22;4762;48.128;11.376;2024-03-07T14:44:19;7.80;63.80